18°C Temp
11°C Dewpoint
% Humidity
Temperature
8 KM/H
5 MPH
4 KTS
130°
South East

Wind Speed
Mostly Cloudy
Conditions
Pressure 1016.92 (hPa) - 30.03 (in)
Visibility 6.2 (mi) - 10.0 (km)

Current Conditions
YPPH
Location 20(km)
Metar :YPPH 270200Z 13004KT 030V180 9999 BKN035 BKN050 18/11 Q1017
Sun 27th September 10:00 am

Airport
  Metar Aviation API Data Provided by https://www.checkwx.com/ PHP scripts by weather34.com ©2020